Brittany Beyel — WDE5871 — position and weather

sailwx.info

Track history (hours):
 
Tides and Currents Weather Stations Pressure Air Temp Water Temp Dewpoint Dewpoint Depression Visibility Wind Speed Wind Dir Waves Ship Positions

Brittany Beyel

Owner: Beyel Brothers Inc, Cocoa, FL. More information available from US FCC via Universal Licensing System and Coast Guard Vessel Documentation Center.

Last reported at 2017-Dec-07 19:49 UTC. Time now 2017-Dec-12 06:42 UTC.
Position N 26°57' W 080°05'.

; draft 2 m.

Type: Ship. MMSI: 367372710.

Date/timePositionNaut miles runAvg speedWind from/ knotsBaromVisibWave heightAir tempDewpointWater temp
2017-Dec-07 19:49N 26°57' W 080°05'11 2.4
2017-Dec-07 15:13N 26°47' W 080°03'1 5.1
2017-Dec-07 15:00N 26°46' W 080°03'0 0.3
2017-Dec-07 14:28N 26°45' W 080°03'1 2.7
2017-Dec-07 13:59N 26°47' W 080°03'0 0.1
2017-Dec-07 12:50N 26°47' W 080°03'0 0.0
2017-Dec-07 12:26N 26°47' W 080°03'0 0.0
2017-Dec-07 11:56N 26°47' W 080°03'0 0.0
2017-Dec-07 11:08N 26°47' W 080°03'0 0.0
2017-Dec-07 10:58N 26°47' W 080°03'0 0.0
2017-Dec-07 10:22N 26°47' W 080°03'0 0.0
2017-Dec-07 09:58N 26°47' W 080°03'0 0.0
2017-Dec-07 09:29N 26°47' W 080°03'0 0.0
2017-Dec-07 08:56N 26°47' W 080°03'0 0.0
2017-Dec-07 08:29N 26°47' W 080°03'0 0.0
2017-Dec-07 07:55N 26°47' W 080°03'0 0.0
2017-Dec-07 07:25N 26°47' W 080°03'0 0.0
2017-Dec-07 06:58N 26°47' W 080°03'0 0.0
2017-Dec-07 06:25N 26°47' W 080°03'0 0.0
2017-Dec-07 05:58N 26°47' W 080°03'0 0.0
2017-Dec-06 20:48N 26°47' W 080°03'  
2017-Dec-04 10:00N 26°45' W 080°03'0 0.0
2017-Dec-04 09:24N 26°45' W 080°03'0 0.0
2017-Dec-04 09:00N 26°45' W 080°03'0 0.0
2017-Dec-04 08:27N 26°45' W 080°03'0 0.0
2017-Dec-04 07:57N 26°45' W 080°03'0 0.0
2017-Dec-04 07:30N 26°45' W 080°03'0 0.0
2017-Dec-04 06:59N 26°45' W 080°03'0 0.7
2017-Dec-04 06:30N 26°45' W 080°03'0 0.7
2017-Dec-04 05:59N 26°45' W 080°03'11 5.3
2017-Dec-04 03:53N 26°57' W 080°05'  
Track history (hours):
 
Tides and Currents Weather Stations Pressure Air Temp Water Temp Dewpoint Dewpoint Depression Visibility Wind Speed Wind Dir Waves Ship Positions

Brittany Beyel

Owner: Beyel Brothers Inc, Cocoa, FL. More information available from US FCC via Universal Licensing System and Coast Guard Vessel Documentation Center.

Last reported at 2017-Dec-07 19:49 UTC. Time now 2017-Dec-12 06:42 UTC.
Position N 26°57' W 080°05'.

; draft 2 m.

Type: Ship. MMSI: 367372710.

Date/timePositionNaut miles runAvg speedWind from/ knotsBaromVisibWave heightAir tempDewpointWater temp
2017-Dec-07 19:49N 26°57' W 080°05'11 2.4
2017-Dec-07 15:13N 26°47' W 080°03'1 5.1
2017-Dec-07 15:00N 26°46' W 080°03'0 0.3
2017-Dec-07 14:28N 26°45' W 080°03'1 2.7
2017-Dec-07 13:59N 26°47' W 080°03'0 0.1
2017-Dec-07 12:50N 26°47' W 080°03'0 0.0
2017-Dec-07 12:26N 26°47' W 080°03'0 0.0
2017-Dec-07 11:56N 26°47' W 080°03'0 0.0
2017-Dec-07 11:08N 26°47' W 080°03'0 0.0
2017-Dec-07 10:58N 26°47' W 080°03'0 0.0
2017-Dec-07 10:22N 26°47' W 080°03'0 0.0
2017-Dec-07 09:58N 26°47' W 080°03'0 0.0
2017-Dec-07 09:29N 26°47' W 080°03'0 0.0
2017-Dec-07 08:56N 26°47' W 080°03'0 0.0
2017-Dec-07 08:29N 26°47' W 080°03'0 0.0
2017-Dec-07 07:55N 26°47' W 080°03'0 0.0
2017-Dec-07 07:25N 26°47' W 080°03'0 0.0
2017-Dec-07 06:58N 26°47' W 080°03'0 0.0
2017-Dec-07 06:25N 26°47' W 080°03'0 0.0
2017-Dec-07 05:58N 26°47' W 080°03'0 0.0
2017-Dec-06 20:48N 26°47' W 080°03'  
2017-Dec-04 10:00N 26°45' W 080°03'0 0.0
2017-Dec-04 09:24N 26°45' W 080°03'0 0.0
2017-Dec-04 09:00N 26°45' W 080°03'0 0.0
2017-Dec-04 08:27N 26°45' W 080°03'0 0.0
2017-Dec-04 07:57N 26°45' W 080°03'0 0.0
2017-Dec-04 07:30N 26°45' W 080°03'0 0.0
2017-Dec-04 06:59N 26°45' W 080°03'0 0.7
2017-Dec-04 06:30N 26°45' W 080°03'0 0.7
2017-Dec-04 05:59N 26°45' W 080°03'11 5.3
2017-Dec-04 03:53N 26°57' W 080°05'  

Dump ship's entire track history